Time;durP1;ratioP1;P1;durP2;ratioP2;P2;SDS_P1;SDS_P2;PMS_P1;PMS_P2;Temp;Humidity;BMP_temperature;BMP_pressure;BME280_temperature;BME280_humidity;BME280_pressure;Samples;Min_cycle;Max_cycle;Signal;HPM_P1;HPM_P2
2022/11/19 00:01:06;;;;;;;17.70;12.90;;;;;;;-0.41;87.96;98733.16;1703655;82;21083;-76
2022/11/19 00:03:33;;;;;;;14.78;12.28;;;;;;;-0.48;88.14;98727.61;1694488;84;21132;-77
2022/11/19 00:06:08;;;;;;;18.07;12.43;;;;;;;-0.47;88.18;98712.78;1671040;84;21482;-78
2022/11/19 00:08:34;;;;;;;16.05;11.70;;;;;;;-0.48;88.35;98716.36;1664919;85;21069;-76
2022/11/19 00:11:08;;;;;;;15.80;11.88;;;;;;;-0.46;88.53;98711.84;1678643;84;21077;-79
2022/11/19 00:13:34;;;;;;;18.23;13.00;;;;;;;-0.46;88.57;98704.02;1696366;84;21643;-78
2022/11/19 00:16:06;;;;;;;15.10;11.25;;;;;;;-0.50;88.74;98699.52;1694705;83;21029;-77
2022/11/19 00:18:33;;;;;;;15.05;11.18;;;;;;;-0.42;88.68;98701.02;1690669;83;21577;-78
2022/11/19 00:21:12;;;;;;;14.07;11.60;;;;;;;-0.34;88.68;98703.02;1695994;83;21107;-76
2022/11/19 00:23:40;;;;;;;13.58;10.98;;;;;;;-0.38;88.97;98690.34;1688714;84;21040;-76
2022/11/19 00:26:13;;;;;;;11.88;9.93;;;;;;;-0.43;89.15;98689.39;1662280;86;21027;-77
2022/11/19 00:28:40;;;;;;;13.20;10.85;;;;;;;-0.34;89.14;98679.52;1703693;84;25766;-79
2022/11/19 00:31:10;;;;;;;15.08;11.10;;;;;;;-0.29;89.08;98673.46;1697169;84;21080;-77
2022/11/19 00:33:38;;;;;;;14.00;10.43;;;;;;;-0.34;89.31;98671.70;1700519;82;21030;-78
2022/11/19 00:36:07;;;;;;;12.65;9.85;;;;;;;-0.38;89.46;98659.85;1703576;84;21525;-78
2022/11/19 00:38:34;;;;;;;13.45;10.30;;;;;;;-0.35;89.48;98653.55;1673644;84;21274;-77
2022/11/19 00:41:00;;;;;;;13.35;9.65;;;;;;;-0.37;89.70;98641.10;1704103;82;21203;-79
2022/11/19 00:46:19;;;;;;;12.95;9.15;;;;;;;-0.21;89.34;98636.29;1644631;85;21052;-79
2022/11/19 00:48:47;;;;;;;12.33;9.30;;;;;;;-0.26;89.65;98631.44;1673283;84;22040;-79
2022/11/19 00:51:14;;;;;;;12.53;9.25;;;;;;;-0.30;89.91;98631.83;1695923;84;21104;-79
2022/11/19 00:53:40;;;;;;;10.88;8.45;;;;;;;-0.23;89.88;98629.06;1695598;84;21122;-78
2022/11/19 00:56:10;;;;;;;11.00;8.18;;;;;;;-0.15;89.69;98629.25;1686422;84;21026;-75
2022/11/19 00:58:38;;;;;;;12.37;8.93;;;;;;;-0.20;89.91;98631.41;1681987;85;21054;-78
2022/11/19 01:01:05;;;;;;;11.73;8.63;;;;;;;-0.22;90.25;98626.80;1683515;85;21090;-76
2022/11/19 01:03:32;;;;;;;11.30;8.20;;;;;;;-0.15;90.23;98618.81;1682614;85;21544;-77
2022/11/19 01:05:59;;;;;;;9.68;7.65;;;;;;;-0.03;89.96;98610.43;1683985;85;21054;-76
2022/11/19 01:08:26;;;;;;;10.85;7.67;;;;;;;-0.05;90.05;98604.51;1683882;85;21065;-77
2022/11/19 01:10:52;;;;;;;11.85;8.35;;;;;;;-0.11;90.25;98605.03;1683589;85;21624;-80
2022/11/19 01:13:35;;;;;;;10.20;8.20;;;;;;;-0.09;90.22;98603.94;1683196;85;21038;-79
2022/11/19 01:16:12;;;;;;;10.48;7.85;;;;;;;0.00;90.03;98599.74;1684040;85;21092;-80
2022/11/19 01:18:40;;;;;;;10.18;7.65;;;;;;;-0.03;90.29;98599.50;1684012;85;21150;-80
2022/11/19 01:21:07;;;;;;;12.45;7.62;;;;;;;-0.07;90.48;98594.67;1683522;85;21070;-81
2022/11/19 01:23:34;;;;;;;9.75;6.75;;;;;;;-0.07;90.58;98595.50;1683862;85;21600;-79
2022/11/19 01:26:01;;;;;;;10.18;6.65;;;;;;;0.04;90.21;98596.37;1684168;85;21545;-80
2022/11/19 01:28:29;;;;;;;11.20;6.97;;;;;;;0.06;90.21;98587.47;1684878;85;21014;-82
2022/11/19 01:30:56;;;;;;;11.18;7.30;;;;;;;0.01;90.49;98584.41;1682524;85;21470;-83
2022/11/19 01:33:23;;;;;;;10.45;7.33;;;;;;;-0.05;90.64;98583.13;1682413;85;21104;-84
2022/11/19 01:35:58;;;;;;;10.10;6.60;;;;;;;-0.02;90.62;98583.34;1683048;85;21078;-81
2022/11/19 01:38:26;;;;;;;11.85;7.37;;;;;;;0.08;90.49;98579.02;1667390;85;22041;-83
2022/11/19 01:40:53;;;;;;;9.40;7.03;;;;;;;0.06;90.57;98578.33;1683904;85;21078;-81
2022/11/19 01:43:19;;;;;;;8.55;5.87;;;;;;;0.04;90.79;98566.34;1684216;85;21103;-82
2022/11/19 01:45:48;;;;;;;7.22;5.25;;;;;;;0.00;90.90;98565.80;1683683;85;21088;-79
2022/11/19 01:48:29;;;;;;;6.95;4.95;;;;;;;0.11;90.75;98566.99;1683521;85;20994;-80
2022/11/19 01:51:05;;;;;;;9.60;5.45;;;;;;;0.16;90.61;98564.83;1683283;85;21015;-78
2022/11/19 01:53:34;;;;;;;7.37;4.97;;;;;;;0.10;90.80;98560.13;1676799;85;21022;-79
2022/11/19 01:56:02;;;;;;;7.05;4.87;;;;;;;0.05;90.95;98558.38;1684119;84;21608;-78
2022/11/19 01:58:38;;;;;;;6.53;4.53;;;;;;;0.10;90.86;98552.78;1682653;85;21007;-78
2022/11/19 02:01:06;;;;;;;5.53;4.40;;;;;;;0.21;90.59;98551.84;1676151;85;21021;-79
2022/11/19 02:03:33;;;;;;;6.33;4.60;;;;;;;0.20;90.73;98562.78;1660180;85;21506;-79
2022/11/19 02:06:00;;;;;;;5.33;4.12;;;;;;;0.14;90.86;98556.30;1641393;85;21015;-78
2022/11/19 02:08:40;;;;;;;5.17;4.05;;;;;;;0.12;90.84;98553.48;1672669;85;21306;-77
2022/11/19 02:11:12;;;;;;;4.62;4.08;;;;;;;0.20;90.51;98547.11;1682723;85;21112;-77
2022/11/19 02:14:18;;;;;;;6.08;4.20;;;;;;;0.21;90.49;98536.18;1683146;85;21045;-79
2022/11/19 02:17:17;;;;;;;6.92;5.28;;;;;;;0.16;90.76;98533.48;1683329;85;21459;-77
2022/11/19 02:20:23;;;;;;;5.45;4.50;;;;;;;0.09;91.07;98534.95;1683882;85;21088;-77
2022/11/19 02:23:23;;;;;;;6.17;4.67;;;;;;;0.18;91.05;98534.18;1682578;85;21866;-77
2022/11/19 02:26:38;;;;;;;5.42;4.22;;;;;;;0.25;90.80;98527.97;1683736;85;21086;-77
2022/11/19 02:29:37;;;;;;;5.25;4.65;;;;;;;0.16;91.10;98517.81;1683562;85;21055;-77
2022/11/19 02:32:14;;;;;;;6.87;5.30;;;;;;;0.10;91.33;98520.14;1676560;85;21510;-79
2022/11/19 02:34:54;;;;;;;6.92;4.95;;;;;;;0.21;91.06;98522.63;1680146;85;21605;-77
2022/11/19 02:37:37;;;;;;;6.20;5.55;;;;;;;0.23;91.07;98515.48;1655958;86;21306;-77
2022/11/19 02:40:21;;;;;;;5.42;4.92;;;;;;;0.21;91.33;98513.98;1656433;86;21081;-76
2022/11/19 02:43:21;;;;;;;6.15;4.75;;;;;;;0.16;91.39;98508.67;1670579;85;21129;-76
2022/11/19 02:45:55;;;;;;;5.65;4.65;;;;;;;0.23;91.17;98508.95;1683309;85;21091;-78
2022/11/19 02:48:26;;;;;;;5.75;4.50;;;;;;;0.30;90.71;98511.39;1683868;85;21053;-78
2022/11/19 02:50:56;;;;;;;6.35;5.25;;;;;;;0.25;90.97;98507.52;1682727;85;21929;-77
2022/11/19 02:53:23;;;;;;;6.08;4.40;;;;;;;0.18;91.10;98505.45;1683761;85;21557;-78
2022/11/19 03:04:28;;;;;;;7.17;5.28;;;;;;;0.21;91.02;98505.66;1636783;87;21673;-78
2022/11/19 03:07:11;;;;;;;6.50;4.37;;;;;;;0.16;91.23;98518.30;1664210;85;21027;-79
2022/11/19 03:09:49;;;;;;;5.80;4.03;;;;;;;0.27;91.03;98513.44;1664263;86;21035;-79
2022/11/19 03:12:42;;;;;;;5.70;4.20;;;;;;;0.30;90.83;98507.47;1664636;86;21020;-80
2022/11/19 03:18:29;;;;;;;6.53;4.75;;;;;;;0.18;91.19;98515.89;1663478;86;21170;-79
2022/11/19 03:20:59;;;;;;;;;;;;;;;0.24;91.05;98510.62;1665903;86;21091;-78
2022/11/19 03:23:37;;;;;;;6.35;4.25;;;;;;;0.32;90.89;98500.81;1663544;85;20142;-81
2022/11/19 03:26:14;;;;;;;6.05;4.47;;;;;;;0.26;90.95;98497.44;1665221;86;21071;-76
2022/11/19 03:28:41;;;;;;;6.60;4.72;;;;;;;0.19;91.18;98495.36;1664223;85;21087;-79
2022/11/19 03:31:08;;;;;;;5.40;3.85;;;;;;;0.22;91.33;98492.13;1664150;85;21157;-77
2022/11/19 03:33:42;;;;;;;5.28;4.03;;;;;;;0.33;91.02;98494.16;1663982;85;21074;-78
2022/11/19 03:36:17;;;;;;;5.10;3.75;;;;;;;0.37;91.10;98486.39;1662646;86;21603;-78
2022/11/19 03:38:48;;;;;;;6.45;5.22;;;;;;;0.33;91.35;98490.73;1663800;85;21083;-76
2022/11/19 03:41:17;;;;;;;5.95;4.42;;;;;;;0.27;91.50;98487.31;1664997;86;21059;-77
2022/11/19 03:43:47;;;;;;;4.87;3.75;;;;;;;0.30;91.68;98495.72;1664828;86;21118;-76
2022/11/19 03:46:15;;;;;;;4.50;3.60;;;;;;;0.45;91.28;98495.36;1664131;86;21516;-78
2022/11/19 03:48:44;;;;;;;4.20;3.15;;;;;;;0.51;91.26;98496.12;1664729;85;21080;-78
2022/11/19 03:51:17;;;;;;;4.10;3.70;;;;;;;0.49;91.64;98489.72;1664298;86;21063;-79
2022/11/19 03:53:44;;;;;;;5.58;4.47;;;;;;;0.48;91.59;98485.44;1664310;85;21083;-82
2022/11/19 03:56:13;;;;;;;4.15;3.15;;;;;;;0.42;91.44;98480.75;1664230;84;21508;-79
2022/11/19 03:58:43;;;;;;;4.67;3.45;;;;;;;0.53;91.23;98479.34;1664174;85;21110;-79
2022/11/19 04:01:10;;;;;;;3.95;3.15;;;;;;;0.61;90.94;98476.53;1663918;86;21582;-81
2022/11/19 04:03:36;;;;;;;5.10;3.65;;;;;;;0.55;91.01;98480.52;1663869;85;21562;-81
2022/11/19 04:06:04;;;;;;;6.78;4.50;;;;;;;0.51;91.22;98483.05;1652303;86;21531;-81
2022/11/19 04:08:30;;;;;;;4.05;3.35;;;;;;;0.48;91.38;98478.09;1643568;85;21151;-79
2022/11/19 04:10:58;;;;;;;4.92;3.67;;;;;;;0.56;91.21;98463.40;1663968;86;21119;-81
2022/11/19 04:13:25;;;;;;;5.03;3.27;;;;;;;0.67;90.78;98454.59;1661453;85;21519;-79
2022/11/19 04:15:52;;;;;;;4.53;3.65;;;;;;;0.68;90.93;98460.66;1664160;86;21796;-79
2022/11/19 04:18:18;;;;;;;4.60;3.83;;;;;;;0.67;91.11;98453.77;1664489;86;21546;-79
2022/11/19 04:20:46;;;;;;;4.90;4.12;;;;;;;0.62;90.87;98450.27;1664336;84;21094;-79
2022/11/19 04:23:13;;;;;;;4.25;3.33;;;;;;;0.65;90.50;98452.59;1663431;86;21068;-81
2022/11/19 04:25:46;;;;;;;4.03;3.10;;;;;;;0.74;90.01;98440.50;1664570;86;21011;-79
2022/11/19 04:28:13;;;;;;;4.05;3.30;;;;;;;0.69;90.01;98430.44;1664258;86;21100;-80
2022/11/19 04:30:39;;;;;;;4.15;3.50;;;;;;;0.63;90.40;98428.38;1666031;86;21039;-78
2022/11/19 04:33:06;;;;;;;4.72;3.35;;;;;;;0.59;90.60;98420.47;1665923;85;21119;-78
2022/11/19 04:35:33;;;;;;;3.77;3.02;;;;;;;0.61;90.53;98422.95;1663598;85;21040;-78
2022/11/19 04:37:59;;;;;;;4.45;3.15;;;;;;;0.68;90.02;98411.81;1662809;86;21552;-82
2022/11/19 04:40:26;;;;;;;4.08;3.20;;;;;;;0.66;90.06;98411.62;1664143;86;21099;-81
2022/11/19 04:42:52;;;;;;;3.87;3.20;;;;;;;0.61;90.34;98413.81;1665971;85;21082;-80
2022/11/19 04:45:19;;;;;;;3.52;2.77;;;;;;;0.54;90.30;98405.22;1660561;86;21712;-79
2022/11/19 04:47:45;;;;;;;3.20;2.85;;;;;;;0.53;90.29;98403.55;1662226;86;21052;-82
2022/11/19 04:50:12;;;;;;;3.65;2.90;;;;;;;0.63;89.88;98400.94;1664233;86;21083;-81
2022/11/19 04:52:38;;;;;;;2.77;2.37;;;;;;;0.59;89.94;98406.92;1665029;85;21127;-81
2022/11/19 04:55:05;;;;;;;3.42;2.72;;;;;;;0.53;90.16;98410.58;1665389;85;21035;-81
2022/11/19 04:57:32;;;;;;;3.85;2.87;;;;;;;0.42;90.13;98421.15;1669022;84;21307;-80
2022/11/19 04:59:59;;;;;;;3.50;3.02;;;;;;;0.41;90.30;98424.25;1671184;86;21078;-79
2022/11/19 05:02:25;;;;;;;3.60;2.90;;;;;;;0.52;90.10;98448.11;1665171;84;21380;-81
2022/11/19 05:04:52;;;;;;;3.75;2.77;;;;;;;0.51;90.04;98469.98;1695755;83;21077;-79
2022/11/19 05:07:18;;;;;;;3.70;3.20;;;;;;;0.45;90.32;98468.74;1675160;85;21108;-78
2022/11/19 05:09:45;;;;;;;3.55;3.10;;;;;;;0.41;90.71;98473.89;1675242;85;21074;-77
2022/11/19 05:12:11;;;;;;;3.95;3.12;;;;;;;0.46;90.72;98466.45;1692918;82;21536;-80
2022/11/19 05:14:39;;;;;;;3.92;3.15;;;;;;;0.59;90.16;98460.49;1696417;84;21024;-79
2022/11/19 05:17:06;;;;;;;3.25;2.72;;;;;;;0.60;90.28;98457.42;1702066;82;21027;-78
2022/11/19 05:19:34;;;;;;;3.85;3.45;;;;;;;0.57;90.49;98455.88;1694809;84;21060;-78
2022/11/19 05:22:01;;;;;;;3.45;2.77;;;;;;;0.53;90.50;98461.53;1706219;84;21641;-77
2022/11/19 05:24:28;;;;;;;3.92;2.72;;;;;;;0.48;90.31;98456.69;1706791;84;20977;-81
2022/11/19 05:26:55;;;;;;;3.33;2.25;;;;;;;0.56;89.95;98455.56;1696164;84;21064;-82
2022/11/19 05:29:21;;;;;;;2.77;2.40;;;;;;;0.55;89.78;98459.12;1703596;82;21045;-79
2022/11/19 05:31:48;;;;;;;3.15;2.72;;;;;;;0.50;90.04;98455.25;1701271;82;21179;-74
2022/11/19 05:34:16;;;;;;;2.60;2.30;;;;;;;0.42;90.21;98462.95;1703424;82;21126;-79
2022/11/19 05:36:42;;;;;;;2.85;2.30;;;;;;;0.39;90.17;98464.88;1692208;82;21544;-79
2022/11/19 05:39:10;;;;;;;3.08;2.50;;;;;;;0.49;89.85;98466.69;1703713;82;21037;-79
2022/11/19 05:41:37;;;;;;;2.70;2.40;;;;;;;0.50;89.91;98465.25;1701951;82;21053;-79
2022/11/19 05:44:04;;;;;;;2.80;2.60;;;;;;;0.43;90.14;98467.23;1702741;82;21135;-78
2022/11/19 05:46:31;;;;;;;3.37;2.87;;;;;;;0.37;90.27;98472.52;1703064;82;21144;-79
2022/11/19 05:48:58;;;;;;;2.85;2.30;;;;;;;0.36;90.44;98476.07;1703075;82;21088;-81
2022/11/19 05:51:24;;;;;;;3.20;2.55;;;;;;;0.48;90.17;98486.74;1702394;84;21111;-80
2022/11/19 05:53:51;;;;;;;3.98;2.72;;;;;;;0.54;90.18;98484.08;1704044;82;21029;-80
2022/11/19 05:56:18;;;;;;;2.98;2.60;;;;;;;0.52;90.24;98492.53;1703760;83;21564;-78
2022/11/19 05:58:46;;;;;;;5.08;3.70;;;;;;;0.46;90.27;98486.55;1675800;84;21072;-76
2022/11/19 06:01:14;;;;;;;5.70;3.92;;;;;;;0.45;90.42;98485.72;1696548;84;21136;-79
2022/11/19 06:03:40;;;;;;;6.12;3.80;;;;;;;0.57;90.05;98485.94;1696927;84;21070;-80
2022/11/19 06:06:08;;;;;;;4.50;3.40;;;;;;;0.63;89.95;98485.88;1698609;84;21049;-78
2022/11/19 06:08:34;;;;;;;2.98;2.45;;;;;;;0.58;89.93;98488.91;1702393;84;21088;-80
2022/11/19 06:11:03;;;;;;;3.17;2.52;;;;;;;0.52;89.95;98498.61;1703845;84;21288;-80
2022/11/19 06:13:30;;;;;;;2.90;2.30;;;;;;;0.47;89.90;98486.41;1705072;84;21169;-79
2022/11/19 06:15:58;;;;;;;2.70;2.25;;;;;;;0.58;89.67;98489.41;1704359;84;21556;-80
2022/11/19 06:18:24;;;;;;;4.67;2.77;;;;;;;0.61;89.64;98494.83;1694243;84;21034;-80
2022/11/19 06:20:52;;;;;;;3.67;2.70;;;;;;;0.55;89.62;98495.70;1695933;84;21088;-79
2022/11/19 06:23:19;;;;;;;3.40;2.70;;;;;;;0.50;89.74;98493.15;1705277;84;21114;-78
2022/11/19 06:25:49;;;;;;;2.87;2.30;;;;;;;0.48;89.73;98505.52;1705182;84;21129;-81
2022/11/19 06:28:15;;;;;;;3.20;2.60;;;;;;;0.62;89.56;98519.99;1700829;84;21036;-80
2022/11/19 06:30:43;;;;;;;3.10;2.52;;;;;;;0.67;89.51;98516.02;1703405;84;21040;-80
2022/11/19 06:33:10;;;;;;;3.17;2.75;;;;;;;0.65;89.34;98521.04;1703752;84;21076;-81
2022/11/19 06:35:38;;;;;;;3.05;2.75;;;;;;;0.61;89.54;98524.40;1667874;84;21097;-81
2022/11/19 06:38:05;;;;;;;3.50;2.65;;;;;;;0.64;89.61;98528.52;1700954;84;21045;-81
2022/11/19 06:40:32;;;;;;;2.87;2.50;;;;;;;0.75;89.25;98531.02;1669068;84;21623;-80
2022/11/19 06:42:58;;;;;;;6.17;3.10;;;;;;;0.81;89.27;98534.88;1702564;83;21088;-79
2022/11/19 06:45:26;;;;;;;3.77;3.25;;;;;;;0.78;89.27;98536.81;1702913;84;21132;-77
2022/11/19 06:47:53;;;;;;;4.87;3.30;;;;;;;0.74;89.39;98537.23;1703336;83;21282;-79
2022/11/19 06:50:20;;;;;;;3.60;3.05;;;;;;;0.73;89.25;98541.61;1703004;83;21052;-80
2022/11/19 06:52:46;;;;;;;5.00;3.65;;;;;;;0.85;88.98;98544.11;1701760;84;21049;-78
2022/11/19 06:55:15;;;;;;;5.62;3.70;;;;;;;0.93;88.81;98540.36;1703654;84;21061;-79
2022/11/19 06:57:41;;;;;;;4.22;3.40;;;;;;;0.94;88.84;98540.69;1703628;82;21077;-79
2022/11/19 07:00:11;;;;;;;4.60;3.65;;;;;;;0.93;88.70;98542.97;1702558;83;22062;-77
2022/11/19 07:02:39;;;;;;;4.78;3.77;;;;;;;0.90;88.61;98544.54;1703519;84;21076;-78
2022/11/19 07:05:09;;;;;;;4.65;3.83;;;;;;;0.99;88.53;98538.50;1703146;84;21068;-78
2022/11/19 07:07:35;;;;;;;5.35;4.30;;;;;;;1.14;88.23;98541.05;1681717;84;21073;-78
2022/11/19 07:10:02;;;;;;;5.30;4.10;;;;;;;1.16;88.18;98542.23;1682582;85;21057;-77
2022/11/19 07:12:33;;;;;;;4.30;3.58;;;;;;;1.15;88.04;98540.08;1683204;85;21611;-79
2022/11/19 07:15:01;;;;;;;5.90;3.70;;;;;;;1.16;88.02;98544.36;1681938;85;21091;-79
2022/11/19 07:18:14;;;;;;;5.83;3.47;;;;;;;1.28;87.45;98548.96;1809717;78;22660;-79
2022/11/19 07:20:44;;;;;;;4.75;3.22;;;;;;;1.35;86.93;98551.38;1757369;81;21086;-78
2022/11/19 07:23:10;;;;;;;4.58;3.67;;;;;;;1.37;86.54;98552.53;1725435;80;21195;-79
2022/11/19 07:25:38;;;;;;;7.12;5.35;;;;;;;1.32;86.97;98554.27;1766482;80;21012;-78
2022/11/19 07:28:05;;;;;;;5.78;4.80;;;;;;;1.31;86.93;98556.55;1758627;80;21045;-80
2022/11/19 07:30:33;;;;;;;7.83;5.35;;;;;;;1.28;86.90;98565.97;1753501;81;21517;-77
2022/11/19 07:33:00;;;;;;;5.25;4.25;;;;;;;1.33;86.92;98561.16;1753549;81;20974;-79
2022/11/19 07:35:27;;;;;;;6.90;3.83;;;;;;;1.49;86.43;98568.45;1781320;79;21142;-79
2022/11/19 07:37:54;;;;;;;7.55;4.40;;;;;;;1.49;86.32;98571.06;1768112;80;21017;-80
2022/11/19 07:40:21;;;;;;;5.17;4.67;;;;;;;1.43;86.16;98578.63;1791344;80;20953;-79
2022/11/19 07:42:48;;;;;;;6.83;4.75;;;;;;;1.35;86.15;98580.63;1791437;80;21052;-80
2022/11/19 07:45:18;;;;;;;6.67;5.00;;;;;;;1.28;86.06;98582.98;1804835;79;21580;-80
2022/11/19 07:47:44;;;;;;;5.50;4.67;;;;;;;1.33;85.96;98584.71;1741206;82;21278;-81
2022/11/19 07:50:11;;;;;;;5.55;4.62;;;;;;;1.44;85.59;98584.22;1740317;81;21018;-80
2022/11/19 07:52:37;;;;;;;6.22;5.28;;;;;;;1.38;85.31;98586.41;1734911;81;21042;-80
2022/11/19 07:55:05;;;;;;;5.33;4.72;;;;;;;1.29;85.36;98585.92;1729934;81;21050;-79
2022/11/19 07:57:32;;;;;;;6.62;5.30;;;;;;;1.24;85.54;98589.45;1727676;83;21033;-80
2022/11/19 08:00:02;;;;;;;6.95;5.10;;;;;;;1.25;85.67;98592.89;1732303;81;21158;-79
2022/11/19 08:02:30;;;;;;;6.25;5.60;;;;;;;1.40;85.44;98593.31;1763846;80;21612;-79
2022/11/19 08:05:00;;;;;;;8.45;6.22;;;;;;;1.48;85.06;98596.88;1728217;82;21094;-79
2022/11/19 08:13:29;;;;;;;8.68;6.83;;;;;;;1.44;84.75;98609.90;1707718;82;21058;-80
2022/11/19 08:18:47;;;;;;;19.57;16.27;;;;;;;1.54;83.76;98621.19;1684202;82;21557;-79
2022/11/19 08:21:15;;;;;;;19.55;17.45;;;;;;;1.54;84.35;98620.38;1729466;82;21525;-78
2022/11/19 08:23:43;;;;;;;10.23;9.13;;;;;;;1.57;84.51;98626.16;1693192;82;21046;-78
2022/11/19 08:26:09;;;;;;;11.93;10.35;;;;;;;1.63;84.31;98633.12;1682588;84;21140;-78
2022/11/19 08:28:38;;;;;;;11.50;8.80;;;;;;;1.66;84.14;98639.38;1701932;84;21065;-78
2022/11/19 08:31:06;;;;;;;8.50;7.60;;;;;;;1.83;83.79;98653.08;1703266;83;21090;-79
2022/11/19 08:33:34;;;;;;;11.45;8.78;;;;;;;1.93;83.54;98653.07;1702837;84;21109;-77
2022/11/19 08:36:05;;;;;;;11.90;10.00;;;;;;;1.95;83.43;98661.61;1703081;84;21065;-79
2022/11/19 08:38:59;;;;;;;;;;;;;;;;;;;;;
2022/11/19 08:44:12;;;;;;;13.00;11.60;;;;;;;1.64;81.94;98672.27;1677733;85;21081;-80
2022/11/19 08:46:38;;;;;;;9.35;8.35;;;;;;;1.61;81.59;98683.00;1707812;84;21152;-80
2022/11/19 08:49:05;;;;;;;11.00;8.70;;;;;;;1.63;81.58;98687.62;1725143;83;21490;-79
2022/11/19 08:51:32;;;;;;;9.35;8.08;;;;;;;1.57;81.99;98690.30;1725993;83;21098;-78
2022/11/19 08:54:02;;;;;;;12.13;9.73;;;;;;;1.56;82.00;98696.97;1722850;83;21541;-79
2022/11/19 08:56:29;;;;;;;11.73;10.05;;;;;;;1.57;82.32;98697.33;1688857;82;21057;-79
2022/11/19 08:58:55;;;;;;;10.10;8.90;;;;;;;1.59;82.06;98704.56;1691198;84;21007;-82
2022/11/19 09:01:22;;;;;;;11.05;9.60;;;;;;;1.60;81.81;98706.20;1706348;82;21078;-85
2022/11/19 09:03:49;;;;;;;10.18;8.20;;;;;;;1.61;82.29;98707.05;1726757;82;21215;-92
2022/11/19 09:06:16;;;;;;;10.23;8.48;;;;;;;1.75;82.18;98714.00;1723915;82;21054;-87
2022/11/19 09:08:42;;;;;;;12.35;10.15;;;;;;;1.89;81.76;98721.95;1725082;81;21069;-81
2022/11/19 09:11:15;;;;;;;11.38;10.15;;;;;;;1.90;81.35;98729.33;1720863;83;21045;-83
2022/11/19 09:13:41;;;;;;;11.57;10.38;;;;;;;1.82;81.32;98726.08;1723170;83;21061;-83
2022/11/19 09:16:08;;;;;;;11.12;8.75;;;;;;;1.81;81.44;98723.59;1719709;81;21161;-84
2022/11/19 09:18:38;;;;;;;9.93;8.20;;;;;;;1.80;81.69;98723.23;1677391;83;21097;-83
2022/11/19 09:21:05;;;;;;;8.38;7.47;;;;;;;1.86;82.06;98729.26;1641386;86;21133;-84
2022/11/19 09:23:32;;;;;;;10.93;8.43;;;;;;;2.09;81.49;98735.87;1663749;85;21062;-84
2022/11/19 09:26:02;;;;;;;9.63;7.92;;;;;;;2.21;81.19;98743.59;1660350;86;21078;-84
2022/11/19 09:28:29;;;;;;;11.53;10.32;;;;;;;2.24;81.38;98748.53;1659775;86;21220;-85
2022/11/19 09:31:16;;;;;;;9.85;8.85;;;;;;;2.27;81.13;98739.09;1669120;82;21242;-85
2022/11/19 09:33:45;;;;;;;10.08;7.97;;;;;;;2.31;81.02;98746.53;1658405;83;21305;-84
2022/11/19 09:36:12;;;;;;;10.23;8.80;;;;;;;2.36;80.80;98746.95;1714915;83;21100;-84
2022/11/19 09:38:39;;;;;;;10.78;8.48;;;;;;;2.36;80.58;98753.99;1715536;83;21112;-85
2022/11/19 09:42:03;;;;;;;10.13;7.62;;;;;;;2.31;80.11;98750.95;1695634;83;21254;-85
2022/11/19 09:45:02;;;;;;;10.60;7.95;;;;;;;2.34;79.78;98756.75;1711512;83;21360;-84
2022/11/19 09:48:07;;;;;;;14.73;9.40;;;;;;;2.35;80.16;98787.71;1666040;85;21102;-84
2022/11/19 09:50:44;;;;;;;12.47;7.62;;;;;;;2.13;80.25;98776.55;1608975;88;21071;-84
2022/11/19 09:53:18;;;;;;;11.38;8.25;;;;;;;2.13;80.25;98776.55;1629819;86;21021;-85
2022/11/19 09:55:48;;;;;;;10.00;7.72;;;;;;;2.04;80.39;98776.05;1668948;86;21636;-85
2022/11/19 09:58:23;;;;;;;11.05;7.47;;;;;;;2.03;81.16;98789.28;1678403;85;21100;-85
2022/11/19 10:00:49;;;;;;;7.70;6.45;;;;;;;2.08;80.37;98789.22;1704699;83;21064;-85
2022/11/19 10:03:21;;;;;;;7.10;6.30;;;;;;;2.14;80.40;98782.14;1698988;83;21051;-86
2022/11/19 10:06:10;;;;;;;7.45;5.85;;;;;;;2.12;80.78;98780.12;1698969;83;21067;-83
2022/11/19 10:09:03;;;;;;;7.37;6.40;;;;;;;2.06;80.47;98774.13;1708100;83;22096;-83
2022/11/19 10:11:50;;;;;;;;;;;;;;;1.93;80.45;98780.11;1710656;84;21023;-82
2022/11/19 10:14:47;;;;;;;8.90;7.03;;;;;;;1.83;80.80;98780.59;1710759;83;20154;-82
2022/11/19 10:17:56;;;;;;;8.18;6.72;;;;;;;1.86;80.77;98781.64;1723912;80;21150;-81
2022/11/19 10:20:57;;;;;;;8.20;6.97;;;;;;;1.87;80.74;98791.14;1742402;81;21517;-81
2022/11/19 10:23:46;;;;;;;8.05;7.00;;;;;;;1.73;81.04;98793.18;1746718;82;22033;-80
2022/11/19 10:26:16;;;;;;;9.93;7.95;;;;;;;1.68;81.34;98797.16;1722685;82;21041;-80
2022/11/19 10:28:56;;;;;;;7.97;7.10;;;;;;;1.65;81.36;98802.69;1698513;82;21569;-81
2022/11/19 10:31:38;;;;;;;7.10;6.35;;;;;;;1.69;81.03;98803.58;1692948;84;21510;-79
2022/11/19 10:34:30;;;;;;;8.13;7.22;;;;;;;1.81;80.69;98807.40;1710055;84;21085;-80
2022/11/19 10:37:09;;;;;;;8.75;6.90;;;;;;;1.72;80.42;98811.18;1694060;84;21167;-81
2022/11/19 10:39:55;;;;;;;9.85;7.50;;;;;;;1.70;80.84;98820.96;1707929;82;21138;-81
2022/11/19 10:42:29;;;;;;;8.48;7.05;;;;;;;1.76;81.00;98826.97;1703051;83;21034;-81
2022/11/19 10:45:18;;;;;;;;;;;;;;;1.89;80.81;98832.42;1668411;86;21087;-81
2022/11/19 10:48:12;;;;;;;9.15;7.22;;;;;;;2.05;79.75;98840.61;1682248;83;20166;-80
2022/11/19 10:50:39;;;;;;;9.85;8.50;;;;;;;2.00;79.71;98847.21;1720269;83;21977;-80
2022/11/19 10:53:21;;;;;;;10.78;8.60;;;;;;;1.87;79.54;98855.31;1773798;81;21027;-80
2022/11/19 10:55:53;;;;;;;11.48;8.40;;;;;;;1.87;79.54;98855.31;1753820;81;21034;-80
2022/11/19 10:58:34;;;;;;;9.10;7.33;;;;;;;1.70;79.54;98868.55;1743987;82;21522;-80
2022/11/19 11:01:05;;;;;;;7.90;7.10;;;;;;;1.58;79.58;98882.23;1735995;82;21059;-80
2022/11/19 11:03:59;;;;;;;8.43;7.62;;;;;;;1.58;79.58;98882.23;1703779;83;21612;-80
2022/11/19 11:06:26;;;;;;;9.65;8.15;;;;;;;1.52;80.00;98887.99;1666457;86;21110;-80
2022/11/19 11:08:54;;;;;;;8.05;7.20;;;;;;;1.40;80.12;98900.83;1697081;82;21100;-80
2022/11/19 11:16:45;;;;;;;9.48;7.03;;;;;;;1.14;80.61;98936.08;1727397;82;21139;-79
2022/11/19 11:19:18;;;;;;;9.18;7.05;;;;;;;1.09;80.97;98938.72;1737421;82;20993;-79
2022/11/19 11:21:51;;;;;;;9.68;7.72;;;;;;;1.08;81.27;98944.44;1742129;82;21577;-79
2022/11/19 11:24:19;;;;;;;10.68;8.65;;;;;;;1.08;81.31;98949.67;1716323;82;21065;-80
2022/11/19 11:26:48;;;;;;;9.75;7.83;;;;;;;1.23;81.61;98937.08;1741909;82;21582;-79
2022/11/19 11:29:24;;;;;;;9.05;7.85;;;;;;;1.39;81.27;98932.69;1718469;82;21837;-79
2022/11/19 11:31:51;;;;;;;17.05;9.63;;;;;;;1.44;81.10;98931.02;1746565;82;21073;-79
2022/11/19 11:34:31;;;;;;;11.70;10.08;;;;;;;1.42;80.82;98935.55;1742653;82;21494;-79
2022/11/19 11:36:59;;;;;;;12.68;10.85;;;;;;;1.39;80.65;98944.47;1741437;82;21590;-78
2022/11/19 11:39:37;;;;;;;12.05;9.85;;;;;;;1.32;80.33;98951.20;1745928;82;21096;-78
2022/11/19 11:42:04;;;;;;;8.50;7.60;;;;;;;1.34;80.16;98959.27;1746604;82;21977;-78
2022/11/19 11:44:33;;;;;;;9.80;8.13;;;;;;;1.23;79.87;98968.48;1742882;82;21017;-79
2022/11/19 11:47:17;;;;;;;9.33;7.75;;;;;;;1.04;79.99;98977.50;1741577;82;21001;-77
2022/11/19 11:50:21;;;;;;;10.82;8.20;;;;;;;0.85;80.50;98994.71;1648839;85;21773;-79
2022/11/19 11:52:50;;;;;;;8.60;7.25;;;;;;;0.82;80.69;99002.80;1683805;84;21007;-77
2022/11/19 11:55:28;;;;;;;10.05;8.50;;;;;;;0.74;80.86;99019.58;1703692;84;21234;-78
2022/11/19 11:57:58;;;;;;;9.30;7.83;;;;;;;0.67;80.81;99021.84;1741906;82;21026;-79
2022/11/19 12:00:41;;;;;;;9.68;7.85;;;;;;;0.56;81.21;99034.48;1738215;81;21080;-79
2022/11/19 12:03:17;;;;;;;8.18;7.28;;;;;;;0.53;81.42;99042.55;1741886;82;21001;-77
2022/11/19 12:05:55;;;;;;;9.15;7.03;;;;;;;0.47;81.37;99048.75;1741810;82;21348;-78
2022/11/19 12:08:55;;;;;;;11.20;8.10;;;;;;;0.34;81.27;99054.09;1743659;82;21814;-78
2022/11/19 12:11:56;;;;;;;9.20;7.87;;;;;;;0.22;81.47;99054.58;1747420;81;21014;-78
2022/11/19 12:14:41;;;;;;;9.30;7.70;;;;;;;0.17;81.78;99051.48;1746140;82;21044;-80
2022/11/19 12:17:35;;;;;;;11.03;8.93;;;;;;;0.11;82.33;99058.49;1746730;81;21085;-80
2022/11/19 12:20:21;;;;;;;12.63;9.58;;;;;;;0.14;82.43;99068.72;1747649;80;21025;-75
2022/11/19 12:23:25;;;;;;;11.20;9.28;;;;;;;0.10;82.61;99077.26;1728844;80;21859;-79
2022/11/19 12:26:04;;;;;;;11.25;9.38;;;;;;;0.14;82.69;99101.37;1749182;81;28202;-78
2022/11/19 12:29:21;;;;;;;11.15;8.38;;;;;;;0.09;82.89;99108.70;1749301;82;21033;-77
2022/11/19 12:32:28;;;;;;;11.68;9.30;;;;;;;0.05;82.95;99115.94;1737771;81;20995;-79
2022/11/19 12:35:21;;;;;;;10.38;9.00;;;;;;;0.04;83.02;99124.74;1674545;83;21059;-80
2022/11/19 12:37:59;;;;;;;11.05;8.25;;;;;;;0.00;83.17;99125.92;1713237;83;21157;-78